createdAt,value
2019-02-22T00:00:40.128Z,22.92
2019-02-22T00:01:49.305Z,22.91
2019-02-22T00:02:58.290Z,22.92
2019-02-22T00:04:07.478Z,22.91
2019-02-22T00:05:16.675Z,22.92
2019-02-22T00:06:26.118Z,22.88
2019-02-22T00:07:35.304Z,22.9
2019-02-22T00:08:43.987Z,22.83
2019-02-22T00:09:54.667Z,22.79
2019-02-22T00:11:03.620Z,22.82
2019-02-22T00:12:13.063Z,22.82
2019-02-22T00:13:21.982Z,22.8
2019-02-22T00:14:31.420Z,22.76
2019-02-22T00:15:41.222Z,22.79
2019-02-22T00:16:50.388Z,22.82
2019-02-22T00:17:59.572Z,22.76
2019-02-22T00:19:09.006Z,22.76
2019-02-22T00:20:18.448Z,22.73
2019-02-22T00:21:27.628Z,22.83
2019-02-22T00:22:36.828Z,22.79
2019-02-22T00:23:46.276Z,22.7
2019-02-22T00:24:55.499Z,22.72
2019-02-22T00:26:05.551Z,22.68
2019-02-22T00:27:15.878Z,22.75
2019-02-22T00:28:25.356Z,22.75
2019-02-22T00:29:34.533Z,22.73
2019-02-22T00:30:43.974Z,22.72
2019-02-22T00:31:52.892Z,22.7
2019-02-22T00:33:02.065Z,22.72
2019-02-22T00:34:12.028Z,22.7
2019-02-22T00:35:22.144Z,22.68
2019-02-22T00:36:31.708Z,22.72
2019-02-22T00:37:41.479Z,22.72
2019-02-22T00:38:50.916Z,22.68
2019-02-22T00:40:00.605Z,22.68
2019-02-22T00:41:10.035Z,22.67
2019-02-22T00:42:19.476Z,22.72
2019-02-22T00:43:29.157Z,22.67
2019-02-22T00:44:37.862Z,22.6
2019-02-22T00:45:47.067Z,22.57
2019-02-22T00:46:56.750Z,22.6
2019-02-22T00:48:06.185Z,22.61
2019-02-22T00:49:15.612Z,22.57
2019-02-22T00:50:24.553Z,22.52
2019-02-22T00:51:33.738Z,22.65
2019-02-22T00:52:42.919Z,22.58
2019-02-22T00:53:52.124Z,22.57
2019-02-22T00:55:01.067Z,22.55
2019-02-22T00:56:10.518Z,22.61
2019-02-22T00:57:19.456Z,22.6
2019-02-22T00:58:28.971Z,22.58
2019-02-22T00:59:37.897Z,22.67
2019-02-22T01:00:47.343Z,22.68
2019-02-22T01:01:56.526Z,22.55
2019-02-22T01:03:06.218Z,22.61
2019-02-22T01:04:15.162Z,22.55
2019-02-22T01:05:24.848Z,22.64
2019-02-22T01:06:33.780Z,22.57
2019-02-22T01:07:42.714Z,22.58
2019-02-22T01:08:52.401Z,22.67
2019-02-22T01:10:02.119Z,22.6
2019-02-22T01:11:11.313Z,22.6
2019-02-22T01:12:20.766Z,22.57
2019-02-22T01:13:29.744Z,22.64
2019-02-22T01:14:38.966Z,22.54
2019-02-22T01:15:48.404Z,22.55
2019-02-22T01:16:59.783Z,22.52
2019-02-22T01:18:09.534Z,22.49
2019-02-22T01:19:18.762Z,22.47
2019-02-22T01:20:28.725Z,22.64
2019-02-22T01:21:38.194Z,22.54
2019-02-22T01:22:47.883Z,22.55
2019-02-22T01:23:57.318Z,22.58
2019-02-22T01:25:06.808Z,22.57
2019-02-22T01:26:16.509Z,22.6
2019-02-22T01:27:25.684Z,22.52
2019-02-22T01:28:34.865Z,22.55
2019-02-22T01:29:44.551Z,22.58
2019-02-22T01:30:54.031Z,22.57
2019-02-22T01:32:03.487Z,22.58
2019-02-22T01:33:12.704Z,22.52
2019-02-22T01:34:21.904Z,22.58
2019-02-22T01:35:31.593Z,22.49
2019-02-22T01:36:40.792Z,22.6
2019-02-22T01:37:50.224Z,22.52
2019-02-22T01:38:59.672Z,22.46
2019-02-22T01:40:09.655Z,22.55
2019-02-22T01:41:19.215Z,22.6
2019-02-22T01:42:28.926Z,22.58
2019-02-22T01:43:38.370Z,22.46
2019-02-22T01:44:48.071Z,22.52
2019-02-22T01:45:57.510Z,22.54
2019-02-22T01:47:07.444Z,22.45
2019-02-22T01:48:17.136Z,22.51
2019-02-22T01:49:26.574Z,22.46
2019-02-22T01:50:35.573Z,22.51
2019-02-22T01:51:45.302Z,22.42
2019-02-22T01:52:54.992Z,22.39
2019-02-22T01:54:04.677Z,22.36
2019-02-22T01:55:14.386Z,22.51
2019-02-22T01:56:23.601Z,22.52
2019-02-22T01:57:33.571Z,22.51
2019-02-22T01:58:53.194Z,22.45
2019-02-22T02:00:02.989Z,22.46
2019-02-22T02:01:12.448Z,22.39
2019-02-22T02:02:21.911Z,22.43
2019-02-22T02:03:31.621Z,22.43
2019-02-22T02:04:40.818Z,22.4
2019-02-22T02:05:50.778Z,22.4
2019-02-22T02:07:00.746Z,22.36
2019-02-22T02:08:10.198Z,22.46
2019-02-22T02:09:19.386Z,22.42
2019-02-22T02:10:28.814Z,22.46
2019-02-22T02:11:38.007Z,22.45
2019-02-22T02:12:47.176Z,22.47
2019-02-22T02:13:57.114Z,22.43
2019-02-22T02:15:06.815Z,22.49
2019-02-22T02:16:15.998Z,22.47
2019-02-22T02:17:25.452Z,22.46
2019-02-22T02:18:34.905Z,22.46
2019-02-22T02:19:44.421Z,22.43
2019-02-22T02:20:54.269Z,22.47
2019-02-22T02:22:04.015Z,22.45
2019-02-22T02:23:13.212Z,22.45
2019-02-22T02:24:22.161Z,22.39
2019-02-22T02:25:31.099Z,22.4
2019-02-22T02:26:40.783Z,22.47
2019-02-22T02:27:50.018Z,22.36
2019-02-22T02:28:59.437Z,22.4
2019-02-22T02:30:08.951Z,22.4
2019-02-22T02:31:18.756Z,22.39
2019-02-22T02:32:28.434Z,22.42
2019-02-22T02:33:37.371Z,22.39
2019-02-22T02:34:47.044Z,22.36
2019-02-22T02:35:56.493Z,22.39
2019-02-22T02:37:06.438Z,22.4
2019-02-22T02:38:16.413Z,22.39
2019-02-22T02:39:25.621Z,22.37
2019-02-22T02:40:35.306Z,22.35
2019-02-22T02:41:44.729Z,22.36
2019-02-22T02:42:54.158Z,22.37
2019-02-22T02:44:03.394Z,22.39
2019-02-22T02:45:12.844Z,22.42
2019-02-22T02:46:22.051Z,22.36
2019-02-22T02:47:32.095Z,22.39
2019-02-22T02:48:42.012Z,22.4
2019-02-22T02:49:51.209Z,22.35
2019-02-22T02:51:01.150Z,22.4
2019-02-22T02:52:10.844Z,22.37
2019-02-22T02:53:20.807Z,22.4
2019-02-22T02:54:30.529Z,22.35
2019-02-22T02:55:39.770Z,22.39
2019-02-22T02:56:50.946Z,22.4
2019-02-22T02:58:00.671Z,22.36
2019-02-22T02:59:10.702Z,22.33
2019-02-22T03:00:19.894Z,22.31
2019-02-22T03:01:29.068Z,22.33
2019-02-22T03:02:38.796Z,22.37
2019-02-22T03:03:48.466Z,22.36
2019-02-22T03:04:58.406Z,22.35
2019-02-22T03:06:07.605Z,22.31
2019-02-22T03:07:17.333Z,22.31
2019-02-22T03:08:27.096Z,22.3
2019-02-22T03:09:37.041Z,22.3
2019-02-22T03:10:46.216Z,22.28
2019-02-22T03:11:55.803Z,22.27
2019-02-22T03:13:05.508Z,22.3
2019-02-22T03:14:15.191Z,22.28
2019-02-22T03:15:24.890Z,22.25
2019-02-22T03:16:34.827Z,22.27
2019-02-22T03:17:44.270Z,22.31
2019-02-22T03:18:53.708Z,22.27
2019-02-22T03:20:03.144Z,22.27
2019-02-22T03:21:13.109Z,22.27
2019-02-22T03:22:22.291Z,22.27
2019-02-22T03:23:32.438Z,22.27
2019-02-22T03:24:42.443Z,22.27
2019-02-22T03:25:52.118Z,22.31
2019-02-22T03:27:01.355Z,22.3
2019-02-22T03:28:10.804Z,22.36
2019-02-22T03:29:19.738Z,22.24
2019-02-22T03:30:29.209Z,22.28
2019-02-22T03:31:39.252Z,22.25
2019-02-22T03:32:48.952Z,22.3
2019-02-22T03:33:58.932Z,22.27
2019-02-22T03:35:08.928Z,22.24
2019-02-22T03:36:17.917Z,22.27
2019-02-22T03:37:26.869Z,22.25
2019-02-22T03:38:36.826Z,22.24
2019-02-22T03:39:46.767Z,22.25
2019-02-22T03:40:56.448Z,22.27
2019-02-22T03:42:06.403Z,22.28
2019-02-22T03:43:15.127Z,22.21
2019-02-22T03:44:24.567Z,22.25
2019-02-22T03:45:33.774Z,22.21
2019-02-22T03:46:43.224Z,22.25
2019-02-22T03:47:51.936Z,22.21
2019-02-22T03:49:01.435Z,22.27
2019-02-22T03:50:11.113Z,22.28
2019-02-22T03:51:20.338Z,22.25
2019-02-22T03:52:30.027Z,22.27
2019-02-22T03:53:39.485Z,22.22
2019-02-22T03:54:48.922Z,22.3
2019-02-22T03:55:57.871Z,22.17
2019-02-22T03:57:07.325Z,22.28
2019-02-22T03:58:16.548Z,22.25
2019-02-22T03:59:26.251Z,22.31
2019-02-22T04:00:35.542Z,22.22
2019-02-22T04:01:44.755Z,22.2
2019-02-22T04:02:53.936Z,22.27
2019-02-22T04:04:03.122Z,22.12
2019-02-22T04:05:12.846Z,22.22
2019-02-22T04:06:22.306Z,22.25
2019-02-22T04:07:31.761Z,22.18
2019-02-22T04:08:41.478Z,22.17
2019-02-22T04:09:50.925Z,22.18
2019-02-22T04:11:00.940Z,22.24
2019-02-22T04:12:10.882Z,22.24
2019-02-22T04:13:20.589Z,22.25
2019-02-22T04:14:30.288Z,22.21
2019-02-22T04:15:40.359Z,22.2
2019-02-22T04:16:49.822Z,22.2
2019-02-22T04:17:59.269Z,22.18
2019-02-22T04:19:09.021Z,22.22
2019-02-22T04:20:18.490Z,22.15
2019-02-22T04:21:27.951Z,22.15
2019-02-22T04:22:37.154Z,22.15
2019-02-22T04:23:49.283Z,22.24
2019-02-22T04:24:58.977Z,22.17
2019-02-22T04:26:08.681Z,22.17
2019-02-22T04:27:18.130Z,22.21
2019-02-22T04:28:27.828Z,22.22
2019-02-22T04:29:37.524Z,22.21
2019-02-22T04:30:46.716Z,22.15
2019-02-22T04:31:56.411Z,22.2
2019-02-22T04:33:06.141Z,22.25
2019-02-22T04:34:15.390Z,22.18
2019-02-22T04:35:24.578Z,22.17
2019-02-22T04:36:34.005Z,22.17
2019-02-22T04:37:43.471Z,22.18
2019-02-22T04:38:53.169Z,22.17
2019-02-22T04:40:02.355Z,22.18
2019-02-22T04:41:11.814Z,22.22
2019-02-22T04:42:21.262Z,22.21
2019-02-22T04:43:30.457Z,22.22
2019-02-22T04:44:39.663Z,22.24
2019-02-22T04:45:49.102Z,22.18
2019-02-22T04:46:58.056Z,22.22
2019-02-22T04:48:07.238Z,22.25
2019-02-22T04:49:16.427Z,22.21
2019-02-22T04:50:25.879Z,22.18
2019-02-22T04:51:35.813Z,22.14
2019-02-22T04:52:45.324Z,22.2
2019-02-22T04:53:54.768Z,22.22
2019-02-22T04:55:04.207Z,22.24
2019-02-22T04:56:13.438Z,22.2
2019-02-22T04:57:23.174Z,22.21
2019-02-22T04:58:32.739Z,22.21
2019-02-22T04:59:42.418Z,22.2
2019-02-22T05:00:51.590Z,22.15
2019-02-22T05:02:01.560Z,22.21
2019-02-22T05:03:10.509Z,22.2
2019-02-22T05:04:19.722Z,22.12
2019-02-22T05:05:28.908Z,22.15
2019-02-22T05:06:38.835Z,22.2
2019-02-22T05:07:48.279Z,22.22
2019-02-22T05:08:57.716Z,22.21
2019-02-22T05:10:07.689Z,22.21
2019-02-22T05:11:17.824Z,22.21
2019-02-22T05:12:27.040Z,22.21
2019-02-22T05:13:36.750Z,22.22
2019-02-22T05:14:46.477Z,22.07
2019-02-22T05:15:55.800Z,22.2
2019-02-22T05:17:05.732Z,22.14
2019-02-22T05:18:15.442Z,22.17
2019-02-22T05:19:25.134Z,22.17
2019-02-22T05:20:34.143Z,22.14
2019-02-22T05:21:43.342Z,22.1
2019-02-22T05:23:07.493Z,22.2
2019-02-22T05:24:17.058Z,22.14
2019-02-22T05:25:26.978Z,22.15
2019-02-22T05:26:36.166Z,22.14
2019-02-22T05:27:45.859Z,22.14
2019-02-22T05:28:55.776Z,22.09
2019-02-22T05:30:05.707Z,22.14
2019-02-22T05:31:15.406Z,22.1
2019-02-22T05:32:25.339Z,22.17
2019-02-22T05:33:34.538Z,22.15
2019-02-22T05:34:43.589Z,22.03
2019-02-22T05:35:53.025Z,22.17
2019-02-22T05:37:01.716Z,22.15
2019-02-22T05:38:11.189Z,22.1
2019-02-22T05:39:24.131Z,22.18
2019-02-22T05:40:33.838Z,22.05
2019-02-22T05:41:43.030Z,22.14
2019-02-22T05:42:52.469Z,22.05
2019-02-22T05:44:01.701Z,22.05
2019-02-22T05:45:11.397Z,22.05
2019-02-22T05:46:20.830Z,22.09
2019-02-22T05:47:30.501Z,22.03
2019-02-22T05:48:43.619Z,22.02
2019-02-22T05:49:53.329Z,22.05
2019-02-22T05:51:02.772Z,22.1
2019-02-22T05:52:11.990Z,22.06
2019-02-22T05:53:21.188Z,22.12
2019-02-22T05:54:30.633Z,22.07
2019-02-22T05:55:40.073Z,22.07
2019-02-22T05:56:54.614Z,22.1
2019-02-22T05:58:04.838Z,22.09
2019-02-22T05:59:14.526Z,22.07
2019-02-22T06:00:24.240Z,22.05
2019-02-22T06:01:34.060Z,22.06
2019-02-22T06:02:43.734Z,22.14
2019-02-22T06:03:53.445Z,22.03
2019-02-22T06:05:03.133Z,22.14
2019-02-22T06:06:12.585Z,22.1
2019-02-22T06:07:22.342Z,22.05
2019-02-22T06:08:31.522Z,22.09
2019-02-22T06:09:41.479Z,22.14
2019-02-22T06:10:50.891Z,22.12
2019-02-22T06:12:00.807Z,22.12
2019-02-22T06:13:10.494Z,22.12
2019-02-22T06:14:19.675Z,22.12
2019-02-22T06:15:31.369Z,22.05
2019-02-22T06:16:40.165Z,22.02
2019-02-22T06:17:50.493Z,21.98
2019-02-22T06:18:59.423Z,22.09
2019-02-22T06:20:08.641Z,22.07
2019-02-22T06:21:20.269Z,22.12
2019-02-22T06:22:34.687Z,22.06
2019-02-22T06:23:44.394Z,22.07
2019-02-22T06:24:54.034Z,21.96
2019-02-22T06:26:03.472Z,22.1
2019-02-22T06:27:12.972Z,22.06
2019-02-22T06:28:22.919Z,22.09
2019-02-22T06:29:32.353Z,22.05
2019-02-22T06:30:42.069Z,22.07
2019-02-22T06:31:51.769Z,21.96
2019-02-22T06:33:01.203Z,22.07
2019-02-22T06:34:10.376Z,22.07
2019-02-22T06:35:19.314Z,22.05
2019-02-22T06:36:28.811Z,22.03
2019-02-22T06:37:38.498Z,21.99
2019-02-22T06:38:48.911Z,22.06
2019-02-22T06:39:58.858Z,22.03
2019-02-22T06:41:08.647Z,22.05
2019-02-22T06:42:18.077Z,21.96
2019-02-22T06:43:27.258Z,22.07
2019-02-22T06:44:36.223Z,22.1
2019-02-22T06:45:45.889Z,21.99
2019-02-22T06:46:55.074Z,21.99
2019-02-22T06:48:04.501Z,22.02
2019-02-22T06:49:13.950Z,22.09
2019-02-22T06:50:33.039Z,22
2019-02-22T06:51:43.648Z,22.07
2019-02-22T06:52:53.088Z,21.98
2019-02-22T06:54:02.023Z,21.99
2019-02-22T06:55:11.215Z,22.06
2019-02-22T06:56:20.930Z,21.94
2019-02-22T06:57:31.434Z,21.98
2019-02-22T06:58:40.879Z,22.02
2019-02-22T06:59:50.060Z,22.05
2019-02-22T07:00:59.246Z,21.98
2019-02-22T07:02:08.173Z,22.09
2019-02-22T07:03:17.613Z,21.94
2019-02-22T07:04:27.074Z,21.98
2019-02-22T07:05:36.803Z,21.99
2019-02-22T07:06:46.000Z,22.05
2019-02-22T07:07:56.777Z,21.94
2019-02-22T07:09:06.641Z,21.94
2019-02-22T07:10:16.096Z,22.07
2019-02-22T07:11:25.372Z,22.05
2019-02-22T07:12:34.871Z,22.12
2019-02-22T07:13:44.558Z,22.02
2019-02-22T07:14:54.298Z,22.02
2019-02-22T07:16:03.772Z,22.06
2019-02-22T07:17:13.456Z,22.05
2019-02-22T07:18:22.896Z,22.07
2019-02-22T07:19:32.083Z,22.1
2019-02-22T07:20:41.373Z,22.05
2019-02-22T07:21:57.495Z,22.03
2019-02-22T07:23:06.931Z,22.03
2019-02-22T07:24:16.376Z,22.03
2019-02-22T07:25:25.805Z,22.12
2019-02-22T07:26:35.476Z,22.05
2019-02-22T07:27:45.157Z,22.05
2019-02-22T07:28:54.838Z,22.17
2019-02-22T07:30:04.028Z,22.05
2019-02-22T07:31:13.765Z,22.05
2019-02-22T07:32:22.708Z,22.22
2019-02-22T07:33:32.147Z,22.06
2019-02-22T07:34:42.004Z,22.1
2019-02-22T07:35:50.965Z,22.1
2019-02-22T07:37:00.895Z,22.15
2019-02-22T07:38:10.642Z,22.05
2019-02-22T07:39:31.806Z,22.07
2019-02-22T07:40:41.240Z,22.09
2019-02-22T07:41:50.679Z,22.07
2019-02-22T07:43:10.380Z,22.05
2019-02-22T07:44:20.318Z,22.09
2019-02-22T07:49:23.135Z,22.02
2019-02-22T07:50:32.522Z,22.07
2019-02-22T07:51:41.924Z,22.05
2019-02-22T07:52:51.517Z,22.09
2019-02-22T07:54:01.082Z,22.06
2019-02-22T07:55:10.483Z,22.09
2019-02-22T07:56:21.608Z,21.99
2019-02-22T07:57:30.906Z,22.02
2019-02-22T07:58:40.868Z,21.98
2019-02-22T07:59:50.215Z,22
2019-02-22T08:00:59.747Z,21.98
2019-02-22T08:02:09.298Z,22.02
2019-02-22T08:03:19.122Z,21.96
2019-02-22T08:04:28.932Z,22
2019-02-22T08:05:38.695Z,21.96
2019-02-22T08:06:48.318Z,21.94
2019-02-22T08:07:57.559Z,21.98
2019-02-22T08:09:06.850Z,22
2019-02-22T08:10:16.087Z,21.98
2019-02-22T08:11:25.953Z,22.02
2019-02-22T08:12:35.530Z,21.99
2019-02-22T08:13:45.482Z,21.96
2019-02-22T08:14:54.803Z,21.96
2019-02-22T08:16:04.251Z,22.02
2019-02-22T08:17:14.654Z,22
2019-02-22T08:18:23.812Z,22.06
2019-02-22T08:19:33.918Z,22.17
2019-02-22T08:20:43.192Z,22.21
2019-02-22T08:21:52.223Z,22.22
2019-02-22T08:23:02.275Z,22.33
2019-02-22T08:24:12.044Z,22.27
2019-02-22T08:25:21.100Z,22.35
2019-02-22T08:26:30.419Z,22.46
2019-02-22T08:27:52.925Z,22.45
2019-02-22T08:29:03.360Z,22.57
2019-02-22T08:30:13.051Z,22.57
2019-02-22T08:31:22.674Z,22.57
2019-02-22T08:32:32.418Z,22.73
2019-02-22T08:33:41.968Z,22.73
2019-02-22T08:34:52.038Z,22.76
2019-02-22T08:36:01.913Z,22.8
2019-02-22T08:37:11.007Z,22.91
2019-02-22T08:38:20.126Z,22.92
2019-02-22T08:39:29.747Z,22.97
2019-02-22T08:40:38.820Z,23.01
2019-02-22T08:41:48.452Z,23.04
2019-02-22T08:42:58.557Z,23.05
2019-02-22T08:44:08.080Z,23.17
2019-02-22T08:45:17.381Z,23.15
2019-02-22T08:46:26.527Z,23.2
2019-02-22T08:47:35.671Z,23.23
2019-02-22T08:48:45.455Z,23.27
2019-02-22T08:49:54.743Z,23.25
2019-02-22T08:51:04.730Z,23.25
2019-02-22T08:52:14.396Z,23.32
2019-02-22T08:53:24.132Z,23.38
2019-02-22T08:54:33.613Z,23.39
2019-02-22T08:55:54.452Z,23.33
2019-02-22T08:57:03.337Z,23.25
2019-02-22T08:58:13.139Z,23.33
2019-02-22T08:59:22.679Z,23.32
2019-02-22T09:00:32.309Z,23.43
2019-02-22T09:01:41.535Z,23.28
2019-02-22T09:02:51.521Z,23.22
2019-02-22T09:04:00.897Z,23.31
2019-02-22T09:05:09.975Z,23.27
2019-02-22T09:06:20.118Z,23.28
2019-02-22T09:07:29.903Z,23.27
2019-02-22T09:08:39.740Z,23.2
2019-02-22T09:09:49.175Z,23.25
2019-02-22T09:11:05.359Z,23.16
2019-02-22T09:12:14.731Z,23.31
2019-02-22T09:13:24.100Z,23.16
2019-02-22T09:14:33.936Z,23.2
2019-02-22T09:15:43.498Z,23.19
2019-02-22T09:16:52.947Z,23.28
2019-02-22T09:18:01.944Z,23.23
2019-02-22T09:19:11.226Z,23.15
2019-02-22T09:20:20.521Z,23.16
2019-02-22T09:21:30.539Z,23.15
2019-02-22T09:22:39.845Z,23.09
2019-02-22T09:23:49.489Z,23.1
2019-02-22T09:24:59.346Z,23.16
2019-02-22T09:26:08.547Z,23.16
2019-02-22T09:27:18.158Z,23.09
2019-02-22T09:28:28.029Z,23.07
2019-02-22T09:29:37.847Z,23.01
2019-02-22T09:30:47.069Z,23.04
2019-02-22T09:31:56.969Z,23.1
2019-02-22T09:33:06.841Z,23.09
2019-02-22T09:34:16.175Z,22.97
2019-02-22T09:35:25.490Z,23.01
2019-02-22T09:36:35.224Z,22.97
2019-02-22T09:37:44.811Z,22.97
2019-02-22T09:38:54.275Z,23
2019-02-22T09:40:03.614Z,22.97
2019-02-22T09:41:12.894Z,22.95
2019-02-22T09:42:22.589Z,23
2019-02-22T09:43:31.696Z,22.92
2019-02-22T09:44:41.406Z,22.94
2019-02-22T09:45:51.019Z,22.95
2019-02-22T09:47:00.372Z,22.94
2019-02-22T09:48:09.716Z,22.94
2019-02-22T09:49:19.300Z,22.9
2019-02-22T09:50:28.395Z,22.9
2019-02-22T09:51:37.711Z,22.92
2019-02-22T09:52:48.568Z,22.86
2019-02-22T09:53:58.125Z,22.82
2019-02-22T09:55:07.410Z,22.86
2019-02-22T09:56:17.240Z,22.79
2019-02-22T09:57:26.879Z,22.83
2019-02-22T09:58:36.566Z,22.82
2019-02-22T09:59:45.980Z,22.82
2019-02-22T10:00:55.493Z,22.79
2019-02-22T10:02:04.961Z,22.76
2019-02-22T10:03:14.957Z,22.82
2019-02-22T10:04:24.253Z,22.79
2019-02-22T10:05:33.823Z,22.82
2019-02-22T10:06:43.587Z,22.8
2019-02-22T10:07:53.085Z,22.8
2019-02-22T10:09:03.997Z,22.72
2019-02-22T10:10:13.461Z,22.7
2019-02-22T10:11:22.961Z,22.76
2019-02-22T10:12:31.789Z,22.7
2019-02-22T10:13:41.633Z,22.77
2019-02-22T10:14:51.337Z,22.7
2019-02-22T10:16:00.880Z,22.79
2019-02-22T10:17:10.416Z,22.75
2019-02-22T10:18:19.669Z,22.62
2019-02-22T10:19:29.253Z,22.68
2019-02-22T10:20:38.814Z,22.75
2019-02-22T10:21:48.126Z,22.73
2019-02-22T10:22:57.563Z,22.72
2019-02-22T10:24:06.687Z,22.62
2019-02-22T10:25:15.833Z,22.7
2019-02-22T10:26:25.929Z,22.67
2019-02-22T10:27:35.416Z,22.72
2019-02-22T10:28:44.463Z,22.72
2019-02-22T10:29:53.491Z,22.7
2019-02-22T10:31:02.768Z,22.68
2019-02-22T10:32:12.271Z,22.75
2019-02-22T10:33:23.317Z,22.7
2019-02-22T10:34:43.629Z,22.68
2019-02-22T10:35:53.455Z,22.68
2019-02-22T10:37:03.219Z,22.68
2019-02-22T10:38:12.851Z,22.68
2019-02-22T10:39:22.184Z,22.65
2019-02-22T10:40:31.702Z,22.76
2019-02-22T10:41:41.249Z,22.65
2019-02-22T10:42:50.350Z,22.7
2019-02-22T10:43:59.418Z,22.65
2019-02-22T10:45:09.002Z,22.57
2019-02-22T10:46:18.610Z,22.67
2019-02-22T10:47:29.517Z,22.72
2019-02-22T10:48:39.585Z,22.67
2019-02-22T10:49:48.691Z,22.73
2019-02-22T10:50:59.351Z,22.64
2019-02-22T10:52:08.857Z,22.57
2019-02-22T10:53:17.983Z,22.6
2019-02-22T10:54:27.372Z,22.6
2019-02-22T10:55:37.211Z,22.61
2019-02-22T10:56:47.072Z,22.55
2019-02-22T10:57:56.863Z,22.6
2019-02-22T10:59:06.400Z,22.58
2019-02-22T11:00:15.738Z,22.62
2019-02-22T11:01:24.841Z,22.61
2019-02-22T11:02:36.220Z,22.55
2019-02-22T11:03:45.734Z,22.7
2019-02-22T11:04:55.020Z,22.64
2019-02-22T11:06:04.915Z,22.67
2019-02-22T11:07:14.206Z,22.67
2019-02-22T11:08:23.813Z,22.65
2019-02-22T11:09:33.626Z,22.65
2019-02-22T11:10:43.444Z,22.68
2019-02-22T11:11:53.031Z,22.7
2019-02-22T11:13:02.666Z,22.67
2019-02-22T11:14:12.502Z,22.67
2019-02-22T11:15:21.915Z,22.75
2019-02-22T11:16:31.524Z,22.77
2019-02-22T11:17:41.356Z,22.7
2019-02-22T11:18:51.134Z,22.77
2019-02-22T11:20:00.986Z,22.82
2019-02-22T11:21:10.040Z,22.77
2019-02-22T11:22:19.922Z,22.83
2019-02-22T11:23:29.047Z,22.79
2019-02-22T11:24:38.793Z,22.83
2019-02-22T11:25:48.058Z,22.77
2019-02-22T11:26:57.429Z,22.77
2019-02-22T11:28:07.061Z,22.85
2019-02-22T11:29:16.460Z,22.85
2019-02-22T11:30:26.013Z,22.82
2019-02-22T11:31:36.253Z,22.77
2019-02-22T11:32:45.800Z,22.8
2019-02-22T11:33:55.527Z,22.85
2019-02-22T11:35:04.881Z,22.85
2019-02-22T11:36:14.705Z,22.79
2019-02-22T11:37:24.348Z,22.83
2019-02-22T11:38:33.661Z,22.83
2019-02-22T11:39:43.597Z,22.82
2019-02-22T11:40:53.451Z,22.79
2019-02-22T11:42:03.095Z,22.85
2019-02-22T11:43:12.378Z,22.85
2019-02-22T11:44:21.807Z,22.79
2019-02-22T11:45:30.915Z,22.79
2019-02-22T11:46:40.554Z,22.8
2019-02-22T11:47:49.750Z,22.83
2019-02-22T11:48:58.626Z,22.79
2019-02-22T11:50:07.729Z,22.83
2019-02-22T11:51:17.602Z,22.79
2019-02-22T11:52:27.431Z,22.82
2019-02-22T11:53:37.108Z,22.75
2019-02-22T11:54:46.156Z,22.8
2019-02-22T11:55:55.478Z,22.85
2019-02-22T11:57:05.286Z,22.8
2019-02-22T11:58:14.807Z,22.77
2019-02-22T11:59:24.364Z,22.73
2019-02-22T12:00:33.506Z,22.76
2019-02-22T12:01:43.357Z,22.8
2019-02-22T12:02:52.947Z,22.77
2019-02-22T12:04:02.381Z,22.75
2019-02-22T12:05:11.958Z,22.72
2019-02-22T12:06:21.224Z,22.67
2019-02-22T12:07:30.787Z,22.73
2019-02-22T12:08:40.317Z,22.75
2019-02-22T12:09:50.345Z,22.76
2019-02-22T12:10:59.873Z,22.62
2019-02-22T12:12:09.204Z,22.7
2019-02-22T12:13:18.026Z,22.72
2019-02-22T12:14:27.867Z,22.73
2019-02-22T12:15:36.969Z,22.73
2019-02-22T12:16:46.280Z,22.72
2019-02-22T12:17:56.347Z,22.65
2019-02-22T12:19:06.089Z,22.68
2019-02-22T12:20:15.889Z,22.73
2019-02-22T12:21:27.933Z,22.72
2019-02-22T12:22:36.721Z,22.7
2019-02-22T12:23:46.023Z,22.65
2019-02-22T12:24:57.702Z,22.67
2019-02-22T12:26:07.303Z,22.7
2019-02-22T12:27:19.073Z,22.68
2019-02-22T12:28:28.907Z,22.7
2019-02-22T12:29:37.927Z,22.6
2019-02-22T12:30:47.731Z,22.68
2019-02-22T12:31:57.853Z,22.72
2019-02-22T12:33:07.380Z,22.6
2019-02-22T12:34:16.435Z,22.72
2019-02-22T12:35:25.532Z,22.68
2019-02-22T12:36:35.360Z,22.65
2019-02-22T12:37:44.988Z,22.72
2019-02-22T12:38:55.137Z,22.72
2019-02-22T12:40:05.243Z,22.61
2019-02-22T12:41:15.273Z,22.68
2019-02-22T12:42:24.852Z,22.64
2019-02-22T12:43:34.698Z,22.73
2019-02-22T12:44:44.286Z,22.6
2019-02-22T12:45:54.098Z,22.67
2019-02-22T12:47:04.199Z,22.6
2019-02-22T12:48:13.763Z,22.7
2019-02-22T12:49:23.568Z,22.6
2019-02-22T12:50:33.143Z,22.68
2019-02-22T12:51:42.456Z,22.58
2019-02-22T12:52:51.747Z,22.65
2019-02-22T12:54:01.306Z,22.62
2019-02-22T12:55:10.608Z,22.65
2019-02-22T12:56:21.507Z,22.57
2019-02-22T12:58:11.060Z,22.67
2019-02-22T12:59:20.659Z,22.68
2019-02-22T13:00:30.713Z,22.64
2019-02-22T13:01:40.268Z,22.68
2019-02-22T13:03:01.179Z,22.72
2019-02-22T13:04:11.049Z,22.61
2019-02-22T13:05:20.369Z,22.72
2019-02-22T13:06:29.663Z,22.67
2019-02-22T13:07:39.249Z,22.7
2019-02-22T13:08:48.925Z,22.67
2019-02-22T13:09:57.946Z,22.57
2019-02-22T13:11:07.442Z,22.65
2019-02-22T13:12:19.768Z,22.6
2019-02-22T13:13:29.334Z,22.61
2019-02-22T13:14:38.900Z,22.64
2019-02-22T13:15:48.462Z,22.65
2019-02-22T13:16:58.242Z,22.61
2019-02-22T13:18:07.873Z,22.57
2019-02-22T13:19:17.166Z,22.6
2019-02-22T13:20:26.494Z,22.6
2019-02-22T13:21:36.127Z,22.68
2019-02-22T13:22:45.950Z,22.68
2019-02-22T13:23:57.302Z,22.7
2019-02-22T13:25:06.999Z,22.6
2019-02-22T13:26:17.984Z,22.73
2019-02-22T13:27:27.213Z,22.58
2019-02-22T13:28:36.822Z,22.6
2019-02-22T13:29:46.116Z,22.75
2019-02-22T13:30:55.456Z,22.61
2019-02-22T13:32:05.274Z,22.68
2019-02-22T13:33:14.590Z,22.64
2019-02-22T13:34:24.153Z,22.72
2019-02-22T13:35:33.496Z,22.72
2019-02-22T13:36:43.078Z,22.73
2019-02-22T13:37:52.128Z,22.68
2019-02-22T13:39:01.468Z,22.67
2019-02-22T13:40:10.562Z,22.72
2019-02-22T13:41:20.241Z,22.76
2019-02-22T13:42:29.539Z,22.7
2019-02-22T13:43:39.001Z,22.79
2019-02-22T13:44:48.498Z,22.77
2019-02-22T13:45:58.533Z,22.8
2019-02-22T13:47:08.035Z,22.82
2019-02-22T13:48:17.543Z,22.77
2019-02-22T13:49:27.288Z,22.79
2019-02-22T13:50:36.414Z,22.79
2019-02-22T13:51:45.782Z,22.82
2019-02-22T13:52:55.346Z,22.88
2019-02-22T13:54:04.900Z,22.9
2019-02-22T13:55:14.829Z,22.92
2019-02-22T13:56:34.303Z,22.86
2019-02-22T13:57:43.636Z,22.95
2019-02-22T13:58:52.725Z,22.91
2019-02-22T14:00:02.453Z,22.94
2019-02-22T14:01:12.099Z,22.94
2019-02-22T14:02:21.199Z,22.91
2019-02-22T14:03:30.703Z,22.91
2019-02-22T14:04:40.209Z,22.95
2019-02-22T14:05:49.602Z,22.97
2019-02-22T14:06:59.245Z,22.9
2019-02-22T14:08:09.086Z,22.97
2019-02-22T14:09:18.932Z,22.94
2019-02-22T14:10:28.722Z,22.9
2019-02-22T14:11:37.991Z,22.88
2019-02-22T14:12:47.283Z,22.94
2019-02-22T14:13:57.062Z,22.9
2019-02-22T14:15:06.872Z,22.94
2019-02-22T14:16:16.421Z,22.86
2019-02-22T14:17:26.500Z,22.94
2019-02-22T14:18:36.405Z,22.91
2019-02-22T14:19:46.016Z,22.94
2019-02-22T14:20:55.351Z,22.92
2019-02-22T14:22:04.343Z,22.88
2019-02-22T14:23:14.143Z,22.92
2019-02-22T14:24:23.176Z,22.85
2019-02-22T14:25:32.704Z,22.92
2019-02-22T14:26:42.493Z,22.85
2019-02-22T14:27:52.328Z,22.91
2019-02-22T14:29:02.218Z,22.92
2019-02-22T14:30:11.591Z,22.88
2019-02-22T14:31:21.223Z,22.82
2019-02-22T14:32:30.763Z,22.88
2019-02-22T14:33:40.150Z,22.86
2019-02-22T14:34:49.608Z,22.9
2019-02-22T14:35:59.038Z,22.85
2019-02-22T14:37:08.466Z,22.8
2019-02-22T14:38:18.241Z,22.88
2019-02-22T14:39:28.152Z,22.83
2019-02-22T14:40:37.693Z,22.83
2019-02-22T14:41:47.303Z,22.79
2019-02-22T14:42:56.629Z,22.8
2019-02-22T14:44:05.957Z,22.83
2019-02-22T14:45:15.526Z,22.82
2019-02-22T14:46:30.345Z,22.79
2019-02-22T14:47:39.665Z,22.77
2019-02-22T14:48:49.375Z,22.79
2019-02-22T14:49:58.474Z,22.76
2019-02-22T14:51:07.880Z,22.83
2019-02-22T14:52:20.024Z,22.77
2019-02-22T14:53:29.561Z,22.76
2019-02-22T14:54:39.376Z,22.8
2019-02-22T14:55:48.487Z,22.73
2019-02-22T14:56:57.828Z,22.73
2019-02-22T14:58:07.153Z,22.68
2019-02-22T14:59:16.007Z,22.75
2019-02-22T15:00:25.816Z,22.75
2019-02-22T15:01:37.918Z,22.72
2019-02-22T15:02:47.845Z,22.76
2019-02-22T15:03:57.165Z,22.7
2019-02-22T15:05:09.016Z,22.72
2019-02-22T15:06:18.498Z,22.75
2019-02-22T15:07:28.048Z,22.7